Time;durP1;ratioP1;P1;durP2;ratioP2;P2;SDS_P1;SDS_P2;PMS_P1;PMS_P2;Temp;Humidity;BMP_temperature;BMP_pressure;BME280_temperature;BME280_humidity;BME280_pressure;Samples;Min_cycle;Max_cycle;Signal;HPM_P1;HPM_P2
2021/04/09 00:01:19;;;;;;;16.25;10.45;;;;;;;1.48;65.20;99848.64;1812780;78;21578;-42
2021/04/09 00:03:47;;;;;;;16.02;10.35;;;;;;;1.45;65.31;99852.44;1793973;79;21195;-42
2021/04/09 00:06:15;;;;;;;16.37;10.10;;;;;;;1.44;65.40;99858.86;1807753;78;21178;-42
2021/04/09 00:08:44;;;;;;;13.08;9.85;;;;;;;1.39;65.56;99852.23;1785846;78;21181;-41
2021/04/09 00:11:12;;;;;;;18.65;10.53;;;;;;;1.38;65.61;99856.78;1743628;82;21218;-42
2021/04/09 00:13:41;;;;;;;15.50;10.45;;;;;;;1.35;65.72;99859.24;1814541;78;21165;-42
2021/04/09 00:16:09;;;;;;;16.75;10.43;;;;;;;1.36;65.78;99862.94;1809070;78;23514;-42
2021/04/09 00:18:38;;;;;;;12.98;9.93;;;;;;;1.36;65.83;99869.62;1735762;80;21158;-42
2021/04/09 00:21:08;;;;;;;13.15;9.90;;;;;;;1.37;65.84;99875.22;1781021;79;21015;-42
2021/04/09 00:23:36;;;;;;;15.05;10.80;;;;;;;1.34;65.95;99872.34;1801309;79;21143;-42
2021/04/09 00:26:04;;;;;;;15.88;10.25;;;;;;;1.29;66.03;99876.66;1807209;78;21189;-41
2021/04/09 00:28:33;;;;;;;13.50;9.50;;;;;;;1.29;66.12;99884.67;1813271;78;21657;-42
2021/04/09 00:31:01;;;;;;;13.75;9.48;;;;;;;1.28;66.32;99891.09;1722065;82;21408;-42
2021/04/09 00:33:30;;;;;;;9.30;6.92;;;;;;;1.24;66.58;99886.07;1789520;78;21142;-42
2021/04/09 00:36:00;;;;;;;14.13;9.50;;;;;;;1.20;66.74;99889.06;1800338;79;21162;-42
2021/04/09 00:38:28;;;;;;;12.78;9.43;;;;;;;1.22;67.09;99889.55;1801782;79;21102;-42
2021/04/09 00:40:56;;;;;;;12.58;9.25;;;;;;;1.24;67.41;99885.27;1802410;78;22133;-42
2021/04/09 00:43:24;;;;;;;14.55;9.95;;;;;;;1.25;67.34;99883.66;1777530;80;21151;-42
2021/04/09 00:45:52;;;;;;;16.57;9.63;;;;;;;1.27;67.39;99892.70;1807526;78;21166;-42
2021/04/09 00:48:20;;;;;;;13.60;9.78;;;;;;;1.29;67.49;99891.89;1787531;78;21107;-42
2021/04/09 00:50:49;;;;;;;13.30;9.80;;;;;;;1.30;67.48;99898.30;1796498;78;21430;-42
2021/04/09 00:53:18;;;;;;;12.28;9.35;;;;;;;1.31;67.57;99898.52;1803258;78;22135;-42
2021/04/09 00:55:46;;;;;;;12.90;9.83;;;;;;;1.31;67.59;99901.73;1811530;78;21186;-42
2021/04/09 00:58:15;;;;;;;18.12;10.00;;;;;;;1.31;67.65;99906.53;1757313;79;21083;-42
2021/04/09 01:00:43;;;;;;;15.28;10.25;;;;;;;1.30;67.75;99909.52;1772123;79;21644;-42
2021/04/09 01:03:11;;;;;;;12.75;10.13;;;;;;;1.29;67.81;99907.38;1783989;79;21169;-42
2021/04/09 01:05:39;;;;;;;13.00;10.03;;;;;;;1.25;67.82;99911.70;1794846;78;21353;-42
2021/04/09 01:08:08;;;;;;;13.38;9.83;;;;;;;1.26;67.91;99908.47;1724293;82;21245;-42
2021/04/09 01:10:38;;;;;;;12.28;9.88;;;;;;;1.25;68.07;99914.91;1744040;80;21191;-41
2021/04/09 01:13:06;;;;;;;12.30;9.75;;;;;;;1.21;68.24;99916.56;1740482;80;21123;-42
2021/04/09 01:15:34;;;;;;;12.50;9.70;;;;;;;1.23;68.33;99915.72;1751675;80;21185;-42
2021/04/09 01:18:13;;;;;;;14.83;10.00;;;;;;;1.26;68.30;99923.16;1758302;81;21376;-42
2021/04/09 01:21:08;;;;;;;12.45;9.03;;;;;;;1.26;68.37;99922.62;1747728;80;21175;-42
2021/04/09 01:23:50;;;;;;;15.28;10.50;;;;;;;1.29;68.43;99920.73;1763601;80;20988;-41
2021/04/09 01:26:40;;;;;;;13.43;11.12;;;;;;;1.28;68.64;99924.48;1747178;80;21043;-42
2021/04/09 01:29:25;;;;;;;15.88;10.72;;;;;;;1.29;68.77;99938.09;1747070;80;21146;-42
2021/04/09 01:32:07;;;;;;;16.10;11.22;;;;;;;1.37;68.68;99923.84;1841832;76;22808;-41
2021/04/09 01:34:45;;;;;;;14.30;11.08;;;;;;;1.36;68.69;99940.41;1749108;81;21734;-41
2021/04/09 01:37:26;;;;;;;13.65;10.65;;;;;;;1.41;68.63;99937.68;1747162;81;22157;-41
2021/04/09 01:40:17;;;;;;;12.93;10.13;;;;;;;1.46;68.57;99940.30;1774426;79;21020;-41
2021/04/09 01:42:51;;;;;;;19.15;11.48;;;;;;;1.48;68.60;99944.83;1799473;79;21569;-41
2021/04/09 01:45:20;;;;;;;14.03;10.63;;;;;;;1.53;68.64;99943.97;1788487;79;21008;-41
2021/04/09 01:47:50;;;;;;;14.53;11.35;;;;;;;1.54;68.74;99946.91;1786288;79;21609;-41
2021/04/09 01:50:20;;;;;;;17.12;11.75;;;;;;;1.58;68.76;99952.73;1797200;79;21371;-41
2021/04/09 01:52:48;;;;;;;16.77;11.83;;;;;;;1.59;68.80;99952.98;1811992;79;21060;-41
2021/04/09 01:55:17;;;;;;;15.08;11.63;;;;;;;1.60;69.06;99962.57;1780887;79;21012;-41
2021/04/09 01:57:45;;;;;;;13.32;11.25;;;;;;;1.63;69.45;99961.22;1785094;79;21608;-41
2021/04/09 02:00:24;;;;;;;17.40;11.80;;;;;;;1.65;69.41;99967.06;1779359;79;21161;-41
2021/04/09 02:02:53;;;;;;;13.85;10.82;;;;;;;1.67;69.43;99970.25;1814886;79;22296;-42
2021/04/09 02:05:22;;;;;;;13.65;11.10;;;;;;;1.70;69.66;99973.14;1816854;78;21158;-42
2021/04/09 02:07:56;;;;;;;14.70;11.40;;;;;;;1.70;69.70;99981.70;1811951;79;21154;-42
2021/04/09 02:10:26;;;;;;;14.60;12.13;;;;;;;1.70;69.84;99976.36;1786218;79;21636;-42
2021/04/09 02:12:54;;;;;;;15.20;11.65;;;;;;;1.71;69.92;99982.77;1785066;79;21141;-42
2021/04/09 02:15:24;;;;;;;16.42;12.45;;;;;;;1.76;69.69;99983.23;1790476;79;21195;-42
2021/04/09 02:17:52;;;;;;;17.02;12.00;;;;;;;1.77;69.84;99983.50;1800746;78;21145;-42
2021/04/09 02:20:22;;;;;;;16.37;11.57;;;;;;;1.81;69.83;99984.52;1784510;79;21130;-42
2021/04/09 02:22:52;;;;;;;12.37;10.00;;;;;;;1.89;69.59;99991.13;1785434;79;21121;-42
2021/04/09 02:25:22;;;;;;;16.32;12.00;;;;;;;1.88;69.48;99988.98;1785842;79;21554;-42
2021/04/09 02:27:51;;;;;;;17.60;13.43;;;;;;;1.85;69.57;99993.55;1785576;79;22100;-42
2021/04/09 02:30:21;;;;;;;16.62;12.37;;;;;;;1.83;69.61;99990.38;1784337;80;21186;-42
2021/04/09 02:32:51;;;;;;;16.67;12.47;;;;;;;1.85;69.51;99993.55;1799433;79;21522;-42
2021/04/09 02:35:19;;;;;;;17.42;12.73;;;;;;;1.84;69.21;99991.95;1810363;79;21162;-42
2021/04/09 02:37:49;;;;;;;17.87;13.20;;;;;;;1.80;69.40;100002.97;1808338;79;21146;-42
2021/04/09 02:40:28;;;;;;;17.62;13.72;;;;;;;1.73;69.46;100011.35;1809594;79;21424;-42
2021/04/09 02:42:56;;;;;;;17.65;13.40;;;;;;;1.69;69.52;100014.88;1786950;79;21113;-42
2021/04/09 02:45:24;;;;;;;17.40;12.47;;;;;;;1.64;69.49;100017.61;1802936;79;21170;-42
2021/04/09 02:47:55;;;;;;;19.02;13.03;;;;;;;1.61;69.50;100024.30;1789463;79;21630;-42
2021/04/09 02:50:30;;;;;;;15.32;12.37;;;;;;;1.58;69.47;100016.86;1798341;79;21145;-42
2021/04/09 02:53:05;;;;;;;16.87;12.82;;;;;;;1.56;69.45;100028.90;1801628;79;21365;-42
2021/04/09 02:55:39;;;;;;;17.50;13.55;;;;;;;1.50;69.68;100035.39;1756291;79;21524;-42
2021/04/09 02:58:07;;;;;;;16.17;12.63;;;;;;;1.44;69.67;100031.97;1784491;79;21028;-42
2021/04/09 03:00:37;;;;;;;16.48;13.85;;;;;;;1.40;69.85;100032.83;1809362;79;21154;-42
2021/04/09 03:03:06;;;;;;;16.85;12.95;;;;;;;1.37;69.91;100035.50;1805039;79;21525;-42
2021/04/09 03:05:33;;;;;;;17.57;13.15;;;;;;;1.36;70.00;100033.10;1784601;79;22181;-42
2021/04/09 03:08:03;;;;;;;17.45;13.10;;;;;;;1.33;70.11;100040.36;1784546;79;21035;-42
2021/04/09 03:10:31;;;;;;;16.30;12.58;;;;;;;1.36;70.25;100053.14;1791167;79;21186;-42
2021/04/09 03:13:02;;;;;;;17.55;12.78;;;;;;;1.35;70.15;100058.25;1814153;79;21195;-42
2021/04/09 03:15:37;;;;;;;18.32;14.20;;;;;;;1.30;70.20;100057.22;1788037;79;21117;-42
2021/04/09 03:18:13;;;;;;;17.45;13.88;;;;;;;1.24;70.12;100053.53;1794906;79;23535;-42
2021/04/09 03:20:42;;;;;;;19.20;14.03;;;;;;;1.21;70.22;100058.11;1784392;79;21146;-42
2021/04/09 03:23:10;;;;;;;18.92;14.53;;;;;;;1.17;70.24;100055.72;1790718;79;21078;-42
2021/04/09 03:25:38;;;;;;;18.12;13.98;;;;;;;1.16;70.31;100063.49;1809206;79;21172;-43
2021/04/09 03:28:07;;;;;;;19.05;14.75;;;;;;;1.14;70.34;100072.30;1805204;79;21553;-42
2021/04/09 03:30:35;;;;;;;19.70;14.43;;;;;;;1.15;70.45;100078.72;1778986;79;22296;-42
2021/04/09 03:33:04;;;;;;;19.00;13.93;;;;;;;1.16;70.46;100072.27;1784218;79;21142;-42
2021/04/09 03:35:32;;;;;;;21.75;14.87;;;;;;;1.16;70.39;100076.84;1809752;78;21134;-42
2021/04/09 03:38:01;;;;;;;19.87;15.23;;;;;;;1.16;70.31;100077.61;1797130;79;21036;-42
2021/04/09 03:40:29;;;;;;;22.45;14.93;;;;;;;1.15;70.26;100077.91;1783622;79;21122;-43
2021/04/09 03:42:58;;;;;;;19.52;14.73;;;;;;;1.14;70.21;100077.11;1784338;79;21199;-43
2021/04/09 03:45:26;;;;;;;22.50;15.65;;;;;;;1.12;70.40;100083.80;1783805;80;21197;-42
2021/04/09 03:47:56;;;;;;;18.85;14.43;;;;;;;1.14;70.40;100083.79;1786083;79;20992;-42
2021/04/09 03:50:25;;;;;;;15.83;11.60;;;;;;;1.12;70.50;100084.59;1784284;79;21600;-43
2021/04/09 03:52:53;;;;;;;19.25;14.53;;;;;;;1.14;70.58;100096.34;1784590;79;21213;-42
2021/04/09 03:55:21;;;;;;;22.65;15.38;;;;;;;1.12;70.78;100101.16;1792701;79;21335;-42
2021/04/09 03:57:51;;;;;;;18.98;14.15;;;;;;;1.14;70.98;100102.48;1795925;79;21194;-42
2021/04/09 04:00:21;;;;;;;20.17;14.47;;;;;;;1.17;71.15;100105.92;1792752;79;21134;-42
2021/04/09 04:02:50;;;;;;;;;;;;;;;1.22;71.03;100104.55;1786804;79;21181;-42
2021/04/09 04:05:20;;;;;;;15.72;11.63;;;;;;;1.26;71.00;100110.12;1784102;79;20285;-42
2021/04/09 04:07:48;;;;;;;19.10;14.20;;;;;;;1.18;71.20;100112.06;1807065;79;21558;-43
2021/04/09 04:10:17;;;;;;;17.92;14.30;;;;;;;1.25;71.10;100122.70;1784157;79;21440;-43
2021/04/09 04:12:45;;;;;;;19.00;14.10;;;;;;;1.35;70.91;100128.50;1796856;79;21165;-42
2021/04/09 04:15:13;;;;;;;17.15;14.28;;;;;;;1.40;70.76;100125.80;1784051;79;21050;-43
2021/04/09 04:17:42;;;;;;;18.40;14.63;;;;;;;1.43;70.77;100133.77;1785069;79;21138;-43
2021/04/09 04:20:12;;;;;;;17.80;14.63;;;;;;;1.46;70.60;100139.34;1799961;79;21280;-43
2021/04/09 04:22:39;;;;;;;18.82;14.98;;;;;;;1.50;70.35;100140.94;1783894;80;21148;-43
2021/04/09 04:25:10;;;;;;;19.60;15.10;;;;;;;1.49;70.17;100144.68;1790005;79;21166;-43
2021/04/09 04:27:37;;;;;;;18.75;14.33;;;;;;;1.47;70.18;100148.16;1784357;79;21031;-43
2021/04/09 04:30:07;;;;;;;18.42;14.30;;;;;;;1.46;70.18;100154.58;1783855;80;21153;-43
2021/04/09 04:32:35;;;;;;;18.62;14.05;;;;;;;1.44;70.32;100155.41;1780322;80;22361;-43
2021/04/09 04:35:08;;;;;;;19.87;14.13;;;;;;;1.50;70.36;100158.30;1786386;79;21142;-43
2021/04/09 04:37:36;;;;;;;20.88;15.28;;;;;;;1.55;70.41;100164.38;1805336;78;21121;-43
2021/04/09 04:40:08;;;;;;;20.88;15.58;;;;;;;1.54;70.71;100164.68;1797086;79;21189;-43
2021/04/09 04:42:36;;;;;;;18.50;14.45;;;;;;;1.53;70.99;100164.41;1802925;79;21533;-43
2021/04/09 04:45:06;;;;;;;19.57;14.68;;;;;;;1.60;71.25;100171.02;1798853;79;21435;-43
2021/04/09 04:47:34;;;;;;;20.00;14.45;;;;;;;1.66;71.32;100169.11;1782729;79;21154;-43
2021/04/09 04:50:03;;;;;;;17.00;14.95;;;;;;;1.70;71.49;100170.13;1810552;79;21150;-43
2021/04/09 04:52:31;;;;;;;15.50;12.40;;;;;;;1.75;71.64;100179.45;1803274;79;21186;-43
2021/04/09 04:54:59;;;;;;;20.12;15.98;;;;;;;1.80;71.91;100182.08;1788472;79;21126;-43
2021/04/09 04:57:28;;;;;;;19.32;15.60;;;;;;;1.93;72.05;100181.98;1779325;80;23595;-43
2021/04/09 04:59:56;;;;;;;20.35;15.15;;;;;;;2.12;71.87;100189.01;1787031;79;21178;-45
2021/04/09 05:02:25;;;;;;;20.00;15.30;;;;;;;2.30;71.83;100184.80;1800125;79;21460;-44
2021/04/09 05:04:53;;;;;;;21.07;14.63;;;;;;;2.44;71.61;100191.59;1788539;79;21600;-45
2021/04/09 05:07:21;;;;;;;17.77;14.75;;;;;;;2.55;71.09;100193.08;1799112;79;21146;-44
2021/04/09 05:09:49;;;;;;;19.57;15.15;;;;;;;2.63;70.66;100194.58;1802630;79;23438;-44
2021/04/09 05:12:17;;;;;;;18.40;13.70;;;;;;;2.75;70.66;100197.39;1797605;79;21162;-44
2021/04/09 05:14:45;;;;;;;18.77;13.70;;;;;;;2.92;70.05;100211.88;1788376;79;21162;-45
2021/04/09 05:17:14;;;;;;;17.65;14.25;;;;;;;3.08;69.28;100199.63;1769755;80;21132;-44
2021/04/09 05:19:42;;;;;;;20.27;14.60;;;;;;;3.15;68.92;100201.42;1796349;79;21553;-45
2021/04/09 05:22:13;;;;;;;18.10;13.83;;;;;;;3.20;68.62;100210.70;1762213;80;21351;-45
2021/04/09 05:24:41;;;;;;;18.48;15.28;;;;;;;3.22;68.57;100208.53;1764633;80;21199;-45
2021/04/09 05:27:09;;;;;;;17.90;14.13;;;;;;;3.21;68.57;100210.41;1790552;79;21573;-45
2021/04/09 05:29:39;;;;;;;19.30;14.70;;;;;;;3.22;68.47;100213.36;1771589;80;21002;-45
2021/04/09 05:32:11;;;;;;;16.52;14.30;;;;;;;3.25;68.42;100214.10;1769507;79;21587;-45
2021/04/09 05:34:40;;;;;;;16.25;13.25;;;;;;;3.36;68.13;100216.91;1746248;81;21434;-45
2021/04/09 05:37:07;;;;;;;18.17;14.90;;;;;;;3.44;68.21;100216.77;1783913;80;21122;-45
2021/04/09 05:39:39;;;;;;;17.95;14.68;;;;;;;3.53;68.09;100221.75;1791250;79;21200;-45
2021/04/09 05:42:09;;;;;;;17.98;14.90;;;;;;;3.58;67.88;100227.58;1790136;77;21100;-44
2021/04/09 05:44:37;;;;;;;20.37;15.80;;;;;;;3.59;67.87;100224.59;1802104;79;22140;-44
2021/04/09 05:47:08;;;;;;;19.25;14.35;;;;;;;3.59;67.89;100223.25;1783749;80;21450;-44
2021/04/09 05:49:35;;;;;;;16.95;13.68;;;;;;;3.65;67.79;100229.33;1797832;77;21078;-44
2021/04/09 05:52:06;;;;;;;16.05;13.22;;;;;;;3.74;67.54;100228.38;1784117;79;21172;-44
2021/04/09 05:54:39;;;;;;;20.27;13.38;;;;;;;3.83;67.27;100229.30;1789625;79;21193;-44
2021/04/09 05:57:08;;;;;;;17.37;13.80;;;;;;;3.83;67.15;100227.95;1804923;77;21150;-44
2021/04/09 05:59:36;;;;;;;17.57;14.23;;;;;;;3.81;67.02;100232.83;1787199;79;21320;-44
2021/04/09 06:02:05;;;;;;;17.10;12.90;;;;;;;3.85;67.06;100235.72;1787100;79;21915;-44
2021/04/09 06:04:33;;;;;;;18.92;15.18;;;;;;;3.94;67.14;100236.09;1798034;79;22064;-44
2021/04/09 06:07:01;;;;;;;19.70;14.20;;;;;;;4.04;66.73;100239.69;1784294;79;21176;-44
2021/04/09 06:09:29;;;;;;;16.10;13.43;;;;;;;4.15;66.61;100245.95;1784895;79;21126;-44
2021/04/09 06:11:58;;;;;;;16.30;13.55;;;;;;;4.28;66.16;100244.37;1783851;80;21270;-44
2021/04/09 06:14:28;;;;;;;20.57;14.65;;;;;;;4.40;66.28;100242.55;1804613;79;21879;-44
2021/04/09 06:16:58;;;;;;;18.67;14.60;;;;;;;4.53;66.36;100243.91;1794651;79;21561;-44
2021/04/09 06:19:26;;;;;;;19.52;14.95;;;;;;;4.68;65.99;100248.98;1787118;79;21541;-44
2021/04/09 06:21:54;;;;;;;18.23;15.28;;;;;;;4.80;65.64;100244.44;1785897;79;21138;-44
2021/04/09 06:24:22;;;;;;;20.90;16.32;;;;;;;4.90;64.77;100242.09;1800057;79;21453;-44
2021/04/09 06:26:50;;;;;;;20.60;15.78;;;;;;;4.96;65.13;100248.97;1809321;79;21632;-44
2021/04/09 06:29:18;;;;;;;20.65;14.55;;;;;;;5.02;64.70;100245.88;1804828;79;20980;-44
2021/04/09 06:31:46;;;;;;;19.57;15.43;;;;;;;5.10;64.77;100249.74;1789220;79;21106;-43
2021/04/09 06:34:14;;;;;;;19.02;14.90;;;;;;;5.25;64.55;100254.25;1784241;79;21098;-44
2021/04/09 06:36:42;;;;;;;19.35;14.78;;;;;;;5.43;63.79;100249.81;1784019;80;21373;-44
2021/04/09 06:39:10;;;;;;;18.65;14.90;;;;;;;5.55;63.51;100251.44;1763219;80;21620;-44
2021/04/09 06:41:39;;;;;;;20.52;15.48;;;;;;;5.67;63.59;100248.98;1741948;81;20995;-44
2021/04/09 06:44:07;;;;;;;18.70;14.80;;;;;;;5.84;63.19;100255.60;1759963;81;21181;-44
2021/04/09 06:46:35;;;;;;;18.62;14.23;;;;;;;6.01;62.24;100253.05;1795449;77;21154;-44
2021/04/09 06:49:03;;;;;;;22.20;16.27;;;;;;;6.19;61.69;100251.27;1816122;79;21573;-44
2021/04/09 06:51:33;;;;;;;19.37;15.48;;;;;;;6.34;61.53;100258.39;1814365;79;21138;-44
2021/04/09 06:54:02;;;;;;;18.25;14.40;;;;;;;6.49;61.19;100259.34;1798515;79;21118;-44
2021/04/09 06:56:32;;;;;;;25.90;16.57;;;;;;;6.68;60.78;100265.06;1761667;80;21105;-44
2021/04/09 06:59:01;;;;;;;19.32;15.80;;;;;;;6.87;60.27;100266.38;1703085;81;21467;-44
2021/04/09 07:01:29;;;;;;;18.95;14.75;;;;;;;7.06;60.11;100267.48;1717613;81;21385;-44
2021/04/09 07:03:57;;;;;;;17.32;14.43;;;;;;;7.19;59.42;100263.86;1795001;79;21157;-44
2021/04/09 07:06:30;;;;;;;17.87;14.58;;;;;;;7.32;59.41;100273.70;1795143;77;21585;-44
2021/04/09 07:08:57;;;;;;;20.55;14.70;;;;;;;7.49;58.69;100271.59;1784286;79;21624;-44
2021/04/09 07:11:28;;;;;;;16.17;13.93;;;;;;;7.63;58.34;100272.79;1790562;79;21166;-44
2021/04/09 07:13:59;;;;;;;19.07;15.25;;;;;;;7.80;57.61;100266.02;1812935;79;25368;-44
2021/04/09 07:16:30;;;;;;;21.73;15.48;;;;;;;7.93;56.66;100271.84;1796216;78;21580;-44
2021/04/09 07:18:59;;;;;;;18.50;14.40;;;;;;;8.00;56.26;100273.48;1802389;77;21099;-44
2021/04/09 07:21:34;;;;;;;17.92;14.03;;;;;;;8.08;56.45;100274.05;1793103;79;21149;-44
2021/04/09 07:24:20;;;;;;;18.10;14.38;;;;;;;8.17;56.00;100270.77;1791358;79;21537;-44
2021/04/09 07:26:54;;;;;;;17.73;13.75;;;;;;;8.31;55.38;100272.51;1795814;79;21420;-44
2021/04/09 07:29:38;;;;;;;18.27;14.00;;;;;;;8.45;54.03;100278.51;1784004;79;21432;-44
2021/04/09 07:32:14;;;;;;;16.82;13.70;;;;;;;8.56;54.84;100277.05;1783953;79;21498;-45
2021/04/09 07:34:54;;;;;;;19.65;13.43;;;;;;;8.64;53.41;100274.86;1785579;79;21605;-44
2021/04/09 07:37:23;;;;;;;16.00;13.10;;;;;;;8.72;54.02;100275.38;1793652;79;22290;-44
2021/04/09 07:39:58;;;;;;;18.23;13.90;;;;;;;8.91;53.78;100274.97;1781813;79;21268;-44
2021/04/09 07:42:35;;;;;;;14.15;11.05;;;;;;;9.09;53.65;100284.05;1786331;79;21736;-44
2021/04/09 07:45:11;;;;;;;14.58;11.70;;;;;;;9.27;51.21;100287.99;1793042;79;21008;-44
2021/04/09 07:47:40;;;;;;;12.63;10.28;;;;;;;9.42;51.33;100280.66;1803850;78;21158;-44
2021/04/09 07:50:11;;;;;;;12.18;7.80;;;;;;;9.64;49.49;100280.88;1780252;79;21118;-44
2021/04/09 07:52:49;;;;;;;14.38;11.50;;;;;;;9.87;47.24;100278.88;1783779;79;21596;-44
2021/04/09 07:55:23;;;;;;;14.93;12.47;;;;;;;10.02;48.11;100280.95;1780335;79;21003;-44
2021/04/09 07:57:51;;;;;;;13.25;10.68;;;;;;;10.09;49.37;100279.62;1781701;79;21586;-44
2021/04/09 08:00:27;;;;;;;12.80;10.82;;;;;;;10.10;48.36;100277.95;1781176;79;21609;-44
2021/04/09 08:02:56;;;;;;;13.68;10.75;;;;;;;10.12;47.66;100284.39;1790071;79;21537;-44
2021/04/09 08:05:26;;;;;;;10.63;9.25;;;;;;;10.03;47.71;100286.60;1786560;79;21864;-44
2021/04/09 08:07:54;;;;;;;10.78;7.70;;;;;;;9.95;47.95;100278.00;1783324;79;21150;-44
2021/04/09 08:10:32;;;;;;;8.63;6.45;;;;;;;9.98;46.54;100280.03;1780673;79;21130;-44
2021/04/09 08:13:01;;;;;;;8.08;6.25;;;;;;;10.12;43.77;100283.80;1790025;77;21149;-44
2021/04/09 08:15:34;;;;;;;9.95;7.33;;;;;;;10.26;43.09;100277.55;1798268;79;21185;-44
2021/04/09 08:18:11;;;;;;;10.72;6.47;;;;;;;10.49;42.83;100278.53;1790006;79;22366;-44
2021/04/09 08:20:42;;;;;;;11.08;7.50;;;;;;;10.68;42.19;100285.56;1788327;79;21016;-44
2021/04/09 08:23:12;;;;;;;9.00;7.42;;;;;;;10.73;42.54;100287.50;1784826;80;21573;-44
2021/04/09 08:25:41;;;;;;;9.30;6.90;;;;;;;10.68;42.66;100284.20;1784024;80;21117;-45
2021/04/09 08:28:11;;;;;;;8.48;6.50;;;;;;;10.49;41.17;100277.97;1767859;80;21188;-44
2021/04/09 08:30:40;;;;;;;9.10;6.12;;;;;;;10.27;41.10;100284.56;1775628;80;21239;-44
2021/04/09 08:33:09;;;;;;;;;;;;;;;10.11;41.00;100288.22;1782058;79;21604;-45
2021/04/09 08:35:39;;;;;;;6.05;4.85;;;;;;;9.90;41.03;100284.98;1712511;82;20209;-44
2021/04/09 08:38:08;;;;;;;6.20;4.05;;;;;;;9.65;40.83;100283.27;1744656;81;20999;-44
2021/04/09 08:40:36;;;;;;;5.25;4.00;;;;;;;9.56;39.75;100288.75;1757478;79;21170;-44
2021/04/09 08:43:04;;;;;;;6.08;4.20;;;;;;;9.57;39.80;100276.02;1815657;79;21491;-44
2021/04/09 08:45:34;;;;;;;5.20;3.67;;;;;;;9.74;40.40;100277.22;1798840;79;21177;-44
2021/04/09 08:48:02;;;;;;;5.72;4.67;;;;;;;10.06;40.03;100281.09;1792241;78;21529;-44
2021/04/09 08:50:31;;;;;;;6.10;4.65;;;;;;;10.39;39.02;100280.55;1805457;79;21126;-45
2021/04/09 08:53:00;;;;;;;7.40;4.85;;;;;;;10.66;37.79;100272.89;1783983;79;21051;-45
2021/04/09 08:55:39;;;;;;;5.17;4.37;;;;;;;10.79;36.97;100284.80;1793508;79;21361;-45
2021/04/09 08:58:18;;;;;;;7.33;4.55;;;;;;;10.89;37.33;100281.61;1789810;79;21130;-44
2021/04/09 09:00:47;;;;;;;5.67;4.78;;;;;;;11.08;36.75;100285.70;1784745;79;21021;-45
2021/04/09 09:03:27;;;;;;;5.87;4.65;;;;;;;11.22;36.93;100283.43;1786595;79;21172;-44
2021/04/09 09:06:02;;;;;;;6.95;4.67;;;;;;;11.32;36.68;100278.89;1797117;79;21169;-44
2021/04/09 09:08:53;;;;;;;5.55;3.98;;;;;;;11.31;36.43;100283.53;1782558;79;21189;-45
2021/04/09 09:11:51;;;;;;;6.80;4.12;;;;;;;11.18;34.86;100292.03;1789100;79;21146;-41
2021/04/09 09:14:43;;;;;;;5.45;4.28;;;;;;;10.98;35.85;100288.30;1791696;79;21182;-45
2021/04/09 09:17:24;;;;;;;9.13;6.55;;;;;;;10.84;35.78;100289.97;1793035;79;21090;-45
2021/04/09 09:20:10;;;;;;;6.95;5.25;;;;;;;10.77;38.51;100283.53;1814389;79;21213;-45
2021/04/09 09:22:50;;;;;;;5.72;5.00;;;;;;;10.75;38.75;100292.00;1815237;79;23561;-45
2021/04/09 09:25:36;;;;;;;7.62;6.17;;;;;;;10.65;37.58;100292.44;1815369;79;21625;-45
2021/04/09 09:28:12;;;;;;;7.95;6.35;;;;;;;10.48;39.03;100292.64;1814567;78;21186;-45
2021/04/09 09:30:42;;;;;;;9.25;6.92;;;;;;;10.48;40.12;100289.94;1786055;79;21091;-45
2021/04/09 09:33:27;;;;;;;;;;;;;;;10.68;39.78;100293.14;1791800;79;21517;-45
2021/04/09 09:36:09;;;;;;;7.78;5.95;;;;;;;11.07;40.10;100298.48;1788878;80;20647;-45
2021/04/09 09:38:55;;;;;;;6.53;5.35;;;;;;;11.43;37.88;100290.05;1794374;79;21550;-45
2021/04/09 09:41:44;;;;;;;4.97;3.62;;;;;;;11.82;35.99;100291.23;1783323;80;21177;-45
2021/04/09 09:44:30;;;;;;;4.75;3.00;;;;;;;12.14;31.90;100297.02;1795438;79;21565;-45
2021/04/09 09:47:11;;;;;;;3.47;2.85;;;;;;;12.38;31.00;100286.02;1815797;79;21565;-45
2021/04/09 09:49:40;;;;;;;3.15;2.60;;;;;;;12.74;30.24;100284.19;1811378;79;21044;-45
2021/04/09 09:52:24;;;;;;;4.00;2.20;;;;;;;13.10;29.04;100281.77;1789529;79;21557;-45
2021/04/09 09:55:30;;;;;;;4.47;2.80;;;;;;;13.36;27.97;100281.42;1742229;81;21664;-46
2021/04/09 09:58:13;;;;;;;4.47;2.95;;;;;;;13.67;29.23;100277.02;1747620;81;21145;-45
2021/04/09 10:00:54;;;;;;;9.08;5.10;;;;;;;14.05;29.22;100275.66;1771921;79;21161;-45
2021/04/09 10:03:29;;;;;;;5.53;4.78;;;;;;;14.29;30.39;100279.43;1799471;79;21569;-45
2021/04/09 10:06:11;;;;;;;6.97;5.35;;;;;;;14.30;31.69;100272.83;1814986;79;21086;-45
2021/04/09 10:08:43;;;;;;;8.83;4.87;;;;;;;14.12;31.51;100268.99;1791191;79;21047;-46
2021/04/09 10:11:20;;;;;;;6.12;4.90;;;;;;;13.76;31.57;100278.96;1783551;79;22254;-45
2021/04/09 10:13:49;;;;;;;6.97;5.20;;;;;;;13.40;32.30;100286.39;1801163;79;21173;-46
2021/04/09 10:16:25;;;;;;;5.83;5.05;;;;;;;12.91;32.37;100277.05;1806346;79;21165;-45
2021/04/09 10:18:58;;;;;;;8.73;4.90;;;;;;;12.46;33.60;100279.61;1804748;79;21144;-45
2021/04/09 10:21:30;;;;;;;4.92;3.83;;;;;;;12.15;33.56;100285.02;1791769;79;21644;-45
2021/04/09 10:24:45;;;;;;;7.78;4.83;;;;;;;11.95;33.66;100284.08;1830682;78;22558;-44
2021/04/09 10:27:13;;;;;;;5.70;4.10;;;;;;;11.64;33.05;100288.77;1815987;79;20933;-44
2021/04/09 10:29:41;;;;;;;7.40;4.92;;;;;;;11.42;33.05;100285.22;1816025;79;21263;-44
2021/04/09 10:32:20;;;;;;;6.35;4.60;;;;;;;11.24;34.04;100290.64;1813585;79;21059;-44
2021/04/09 10:34:49;;;;;;;6.50;5.50;;;;;;;10.84;33.93;100247.92;1816183;79;21604;-44
2021/04/09 10:37:25;;;;;;;6.35;5.28;;;;;;;11.01;34.28;100295.75;1797346;79;21039;-44
2021/04/09 10:39:53;;;;;;;6.40;5.53;;;;;;;10.89;34.95;100295.17;1789320;79;21587;-44
2021/04/09 10:42:23;;;;;;;6.30;5.00;;;;;;;11.03;35.24;100291.36;1803299;79;21359;-44
2021/04/09 10:44:51;;;;;;;5.97;4.60;;;;;;;11.38;34.76;100291.08;1790636;79;28316;-44
2021/04/09 10:47:21;;;;;;;6.42;4.75;;;;;;;11.83;34.42;100286.03;1795922;79;20976;-44
2021/04/09 10:49:50;;;;;;;5.37;4.60;;;;;;;12.34;34.01;100285.14;1799539;79;21138;-45
2021/04/09 10:52:20;;;;;;;5.83;4.47;;;;;;;12.83;33.58;100277.42;1776132;78;21122;-41
2021/04/09 10:54:51;;;;;;;5.72;4.70;;;;;;;13.30;31.74;100281.50;1792770;78;21773;-44
2021/04/09 10:57:23;;;;;;;6.22;4.05;;;;;;;13.71;32.22;100273.80;1796603;79;21572;-44
2021/04/09 10:59:52;;;;;;;7.12;4.37;;;;;;;14.06;30.71;100269.06;1778818;79;21007;-44
2021/04/09 11:02:24;;;;;;;6.12;4.75;;;;;;;14.15;30.56;100269.62;1800401;79;21173;-44
2021/04/09 11:04:58;;;;;;;5.90;4.47;;;;;;;14.22;29.89;100269.77;1788936;77;21150;-41
2021/04/09 11:07:48;;;;;;;5.58;4.17;;;;;;;14.37;29.47;100276.88;1802317;78;21600;-44
2021/04/09 11:10:33;;;;;;;5.62;4.08;;;;;;;14.54;29.53;100269.00;1811388;77;21063;-44
2021/04/09 11:13:01;;;;;;;6.05;4.15;;;;;;;14.74;28.94;100266.99;1815596;78;21047;-44
2021/04/09 11:15:43;;;;;;;5.95;4.30;;;;;;;14.84;28.68;100266.38;1793360;79;21640;-44
2021/04/09 11:18:16;;;;;;;5.47;4.40;;;;;;;14.98;28.42;100266.60;1801939;78;21170;-44
2021/04/09 11:20:46;;;;;;;6.00;4.28;;;;;;;15.10;28.17;100266.38;1742921;81;21319;-44
2021/04/09 11:23:17;;;;;;;6.05;4.05;;;;;;;15.26;28.01;100262.70;1734619;81;21175;-44
2021/04/09 11:25:49;;;;;;;6.72;4.35;;;;;;;15.38;28.66;100261.14;1768948;81;21608;-44
2021/04/09 11:28:29;;;;;;;5.00;4.37;;;;;;;15.73;27.30;100263.59;1768873;81;21134;-44
2021/04/09 11:31:03;;;;;;;5.42;4.15;;;;;;;16.01;28.05;100255.72;1741605;81;21174;-45
2021/04/09 11:33:34;;;;;;;5.40;3.77;;;;;;;16.34;26.66;100255.67;1750147;79;21335;-46
2021/04/09 11:36:23;;;;;;;5.37;3.50;;;;;;;16.62;26.27;100253.02;1739199;81;21159;-45
2021/04/09 11:39:12;;;;;;;5.12;4.10;;;;;;;16.71;25.24;100241.16;1749167;79;21341;-44
2021/04/09 11:41:43;;;;;;;4.53;3.62;;;;;;;16.57;25.01;100243.17;1747659;79;21141;-45
2021/04/09 11:44:31;;;;;;;4.72;3.72;;;;;;;16.29;25.45;100251.12;1733907;82;21170;-45